sensor_id;sensor_type;location;lat;lon;timestamp;P1;durP1;ratioP1;P2;durP2;ratioP2
49139;SDS011;34959;49.310;8.646;2022-07-24T00:00:28;7.05;;;5.70;;
49139;SDS011;34959;49.310;8.646;2022-07-24T00:02:53;6.80;;;4.88;;
49139;SDS011;34959;49.310;8.646;2022-07-24T00:05:19;7.80;;;6.05;;
49139;SDS011;34959;49.310;8.646;2022-07-24T00:07:44;7.20;;;6.10;;
49139;SDS011;34959;49.310;8.646;2022-07-24T00:10:12;9.43;;;5.97;;
49139;SDS011;34959;49.310;8.646;2022-07-24T00:12:38;7.60;;;6.22;;
49139;SDS011;34959;49.310;8.646;2022-07-24T00:15:03;7.18;;;6.47;;
49139;SDS011;34959;49.310;8.646;2022-07-24T00:17:29;7.38;;;6.05;;
49139;SDS011;34959;49.310;8.646;2022-07-24T00:19:55;7.18;;;6.47;;
49139;SDS011;34959;49.310;8.646;2022-07-24T00:22:20;7.03;;;6.43;;
49139;SDS011;34959;49.310;8.646;2022-07-24T00:24:46;7.18;;;6.45;;
49139;SDS011;34959;49.310;8.646;2022-07-24T00:27:11;7.00;;;6.30;;
49139;SDS011;34959;49.310;8.646;2022-07-24T00:29:37;7.13;;;6.28;;
49139;SDS011;34959;49.310;8.646;2022-07-24T00:32:02;6.88;;;6.10;;
49139;SDS011;34959;49.310;8.646;2022-07-24T00:34:27;8.32;;;6.45;;
49139;SDS011;34959;49.310;8.646;2022-07-24T00:36:53;6.88;;;6.18;;
49139;SDS011;34959;49.310;8.646;2022-07-24T00:39:18;9.30;;;6.28;;
49139;SDS011;34959;49.310;8.646;2022-07-24T00:41:44;7.85;;;6.97;;
49139;SDS011;34959;49.310;8.646;2022-07-24T00:44:13;7.35;;;6.57;;
49139;SDS011;34959;49.310;8.646;2022-07-24T00:46:41;7.35;;;6.28;;
49139;SDS011;34959;49.310;8.646;2022-07-24T00:49:09;7.22;;;6.50;;
49139;SDS011;34959;49.310;8.646;2022-07-24T00:51:36;7.43;;;6.72;;
49139;SDS011;34959;49.310;8.646;2022-07-24T00:54:05;6.95;;;6.25;;
49139;SDS011;34959;49.310;8.646;2022-07-24T00:56:31;9.32;;;6.03;;
49139;SDS011;34959;49.310;8.646;2022-07-24T00:58:57;7.07;;;6.13;;
49139;SDS011;34959;49.310;8.646;2022-07-24T01:01:22;7.00;;;6.30;;
49139;SDS011;34959;49.310;8.646;2022-07-24T01:03:48;7.32;;;6.63;;
49139;SDS011;34959;49.310;8.646;2022-07-24T01:06:14;6.72;;;6.10;;
49139;SDS011;34959;49.310;8.646;2022-07-24T01:08:39;8.23;;;6.18;;
49139;SDS011;34959;49.310;8.646;2022-07-24T01:11:05;7.03;;;6.20;;
49139;SDS011;34959;49.310;8.646;2022-07-24T01:13:31;8.25;;;6.28;;
49139;SDS011;34959;49.310;8.646;2022-07-24T01:15:57;7.43;;;6.40;;
49139;SDS011;34959;49.310;8.646;2022-07-24T01:18:23;6.75;;;5.97;;
49139;SDS011;34959;49.310;8.646;2022-07-24T01:20:49;8.10;;;6.75;;
49139;SDS011;34959;49.310;8.646;2022-07-24T01:23:15;6.93;;;6.22;;
49139;SDS011;34959;49.310;8.646;2022-07-24T01:25:41;8.50;;;6.70;;
49139;SDS011;34959;49.310;8.646;2022-07-24T01:28:06;6.80;;;5.78;;
49139;SDS011;34959;49.310;8.646;2022-07-24T01:30:32;7.88;;;5.95;;
49139;SDS011;34959;49.310;8.646;2022-07-24T01:32:58;7.55;;;6.18;;
49139;SDS011;34959;49.310;8.646;2022-07-24T01:35:24;7.78;;;6.40;;
49139;SDS011;34959;49.310;8.646;2022-07-24T01:37:50;6.60;;;5.88;;
49139;SDS011;34959;49.310;8.646;2022-07-24T01:40:16;8.35;;;6.00;;
49139;SDS011;34959;49.310;8.646;2022-07-24T01:42:41;6.65;;;6.05;;
49139;SDS011;34959;49.310;8.646;2022-07-24T01:45:07;6.20;;;5.60;;
49139;SDS011;34959;49.310;8.646;2022-07-24T01:47:33;6.25;;;5.65;;
49139;SDS011;34959;49.310;8.646;2022-07-24T01:49:58;7.75;;;6.00;;
49139;SDS011;34959;49.310;8.646;2022-07-24T01:52:23;8.43;;;6.57;;
49139;SDS011;34959;49.310;8.646;2022-07-24T01:54:50;9.57;;;6.45;;
49139;SDS011;34959;49.310;8.646;2022-07-24T01:57:17;6.50;;;5.80;;
49139;SDS011;34959;49.310;8.646;2022-07-24T01:59:42;7.22;;;6.38;;
49139;SDS011;34959;49.310;8.646;2022-07-24T02:02:08;7.40;;;6.45;;
49139;SDS011;34959;49.310;8.646;2022-07-24T02:04:33;8.25;;;6.20;;
49139;SDS011;34959;49.310;8.646;2022-07-24T02:06:59;7.13;;;6.35;;
49139;SDS011;34959;49.310;8.646;2022-07-24T02:09:24;7.28;;;6.20;;
49139;SDS011;34959;49.310;8.646;2022-07-24T02:11:50;7.13;;;6.00;;
49139;SDS011;34959;49.310;8.646;2022-07-24T02:14:15;7.10;;;6.40;;
49139;SDS011;34959;49.310;8.646;2022-07-24T02:16:41;6.63;;;5.60;;
49139;SDS011;34959;49.310;8.646;2022-07-24T02:19:06;6.60;;;5.70;;
49139;SDS011;34959;49.310;8.646;2022-07-24T02:21:32;7.22;;;6.50;;
49139;SDS011;34959;49.310;8.646;2022-07-24T02:23:57;7.18;;;5.57;;
49139;SDS011;34959;49.310;8.646;2022-07-24T02:26:23;7.18;;;6.20;;
49139;SDS011;34959;49.310;8.646;2022-07-24T02:28:48;7.75;;;6.30;;
49139;SDS011;34959;49.310;8.646;2022-07-24T02:31:14;6.32;;;5.55;;
49139;SDS011;34959;49.310;8.646;2022-07-24T02:33:39;6.15;;;5.53;;
49139;SDS011;34959;49.310;8.646;2022-07-24T02:36:04;6.30;;;5.40;;
49139;SDS011;34959;49.310;8.646;2022-07-24T02:38:30;6.88;;;5.50;;
49139;SDS011;34959;49.310;8.646;2022-07-24T02:40:56;6.95;;;6.25;;
49139;SDS011;34959;49.310;8.646;2022-07-24T02:43:22;6.88;;;5.68;;
49139;SDS011;34959;49.310;8.646;2022-07-24T02:45:47;6.93;;;5.43;;
49139;SDS011;34959;49.310;8.646;2022-07-24T02:48:12;5.88;;;5.28;;
49139;SDS011;34959;49.310;8.646;2022-07-24T02:50:38;6.40;;;5.80;;
49139;SDS011;34959;49.310;8.646;2022-07-24T02:53:04;6.45;;;5.45;;
49139;SDS011;34959;49.310;8.646;2022-07-24T02:55:30;6.18;;;5.40;;
49139;SDS011;34959;49.310;8.646;2022-07-24T02:57:55;6.07;;;5.47;;
49139;SDS011;34959;49.310;8.646;2022-07-24T03:00:21;6.10;;;5.22;;
49139;SDS011;34959;49.310;8.646;2022-07-24T03:02:47;6.43;;;5.82;;
49139;SDS011;34959;49.310;8.646;2022-07-24T03:05:13;6.15;;;5.40;;
49139;SDS011;34959;49.310;8.646;2022-07-24T03:07:39;6.32;;;5.65;;
49139;SDS011;34959;49.310;8.646;2022-07-24T03:10:05;6.03;;;5.43;;
49139;SDS011;34959;49.310;8.646;2022-07-24T03:12:31;5.82;;;5.13;;
49139;SDS011;34959;49.310;8.646;2022-07-24T03:14:57;6.47;;;5.15;;
49139;SDS011;34959;49.310;8.646;2022-07-24T03:17:22;6.35;;;5.30;;
49139;SDS011;34959;49.310;8.646;2022-07-24T03:19:48;7.70;;;5.50;;
49139;SDS011;34959;49.310;8.646;2022-07-24T03:22:13;6.05;;;4.97;;
49139;SDS011;34959;49.310;8.646;2022-07-24T03:24:39;5.70;;;5.20;;
49139;SDS011;34959;49.310;8.646;2022-07-24T03:27:04;6.00;;;5.40;;
49139;SDS011;34959;49.310;8.646;2022-07-24T03:29:30;8.35;;;5.60;;
49139;SDS011;34959;49.310;8.646;2022-07-24T03:31:55;7.53;;;6.07;;
49139;SDS011;34959;49.310;8.646;2022-07-24T03:34:20;6.97;;;5.90;;
49139;SDS011;34959;49.310;8.646;2022-07-24T03:36:46;9.95;;;6.20;;
49139;SDS011;34959;49.310;8.646;2022-07-24T03:39:11;9.10;;;6.40;;
49139;SDS011;34959;49.310;8.646;2022-07-24T03:41:37;7.88;;;6.38;;
49139;SDS011;34959;49.310;8.646;2022-07-24T03:44:02;6.82;;;5.85;;
49139;SDS011;34959;49.310;8.646;2022-07-24T03:46:28;10.93;;;6.38;;
49139;SDS011;34959;49.310;8.646;2022-07-24T03:48:54;7.30;;;6.22;;
49139;SDS011;34959;49.310;8.646;2022-07-24T03:51:20;7.63;;;5.95;;
49139;SDS011;34959;49.310;8.646;2022-07-24T03:53:45;7.47;;;6.32;;
49139;SDS011;34959;49.310;8.646;2022-07-24T03:56:11;6.35;;;5.63;;
49139;SDS011;34959;49.310;8.646;2022-07-24T03:58:36;7.00;;;5.85;;
49139;SDS011;34959;49.310;8.646;2022-07-24T04:01:02;6.45;;;5.50;;
49139;SDS011;34959;49.310;8.646;2022-07-24T04:03:28;6.38;;;5.70;;
49139;SDS011;34959;49.310;8.646;2022-07-24T04:05:53;6.20;;;5.07;;
49139;SDS011;34959;49.310;8.646;2022-07-24T04:08:18;7.65;;;5.32;;
49139;SDS011;34959;49.310;8.646;2022-07-24T04:10:44;5.85;;;5.13;;
49139;SDS011;34959;49.310;8.646;2022-07-24T04:13:10;9.95;;;4.93;;
49139;SDS011;34959;49.310;8.646;2022-07-24T04:15:35;6.25;;;5.20;;
49139;SDS011;34959;49.310;8.646;2022-07-24T04:18:00;6.03;;;5.40;;
49139;SDS011;34959;49.310;8.646;2022-07-24T04:20:26;6.38;;;4.93;;
49139;SDS011;34959;49.310;8.646;2022-07-24T04:22:51;6.43;;;4.88;;
49139;SDS011;34959;49.310;8.646;2022-07-24T04:25:17;6.13;;;4.90;;
49139;SDS011;34959;49.310;8.646;2022-07-24T04:27:42;5.95;;;5.30;;
49139;SDS011;34959;49.310;8.646;2022-07-24T04:30:09;5.95;;;4.50;;
49139;SDS011;34959;49.310;8.646;2022-07-24T04:32:35;5.32;;;4.82;;
49139;SDS011;34959;49.310;8.646;2022-07-24T04:35:01;6.10;;;5.50;;
49139;SDS011;34959;49.310;8.646;2022-07-24T04:37:26;5.72;;;5.22;;
49139;SDS011;34959;49.310;8.646;2022-07-24T04:39:52;6.28;;;5.32;;
49139;SDS011;34959;49.310;8.646;2022-07-24T04:42:17;6.20;;;5.43;;
49139;SDS011;34959;49.310;8.646;2022-07-24T04:44:43;6.10;;;5.07;;
49139;SDS011;34959;49.310;8.646;2022-07-24T04:47:08;5.57;;;5.07;;
49139;SDS011;34959;49.310;8.646;2022-07-24T04:49:33;5.75;;;4.90;;
49139;SDS011;34959;49.310;8.646;2022-07-24T04:51:59;7.75;;;5.18;;
49139;SDS011;34959;49.310;8.646;2022-07-24T04:54:24;6.78;;;5.10;;
49139;SDS011;34959;49.310;8.646;2022-07-24T04:56:50;5.93;;;5.22;;
49139;SDS011;34959;49.310;8.646;2022-07-24T04:59:15;5.55;;;4.82;;
49139;SDS011;34959;49.310;8.646;2022-07-24T05:01:41;7.10;;;5.20;;
49139;SDS011;34959;49.310;8.646;2022-07-24T05:04:06;6.55;;;4.80;;
49139;SDS011;34959;49.310;8.646;2022-07-24T05:06:32;5.40;;;4.88;;
49139;SDS011;34959;49.310;8.646;2022-07-24T05:08:57;5.55;;;4.95;;
49139;SDS011;34959;49.310;8.646;2022-07-24T05:11:22;5.15;;;4.70;;
49139;SDS011;34959;49.310;8.646;2022-07-24T05:13:48;5.55;;;4.88;;
49139;SDS011;34959;49.310;8.646;2022-07-24T05:16:14;6.78;;;5.00;;
49139;SDS011;34959;49.310;8.646;2022-07-24T05:18:39;5.78;;;5.00;;
49139;SDS011;34959;49.310;8.646;2022-07-24T05:21:04;5.40;;;4.90;;
49139;SDS011;34959;49.310;8.646;2022-07-24T05:23:30;5.28;;;4.72;;
49139;SDS011;34959;49.310;8.646;2022-07-24T05:25:55;5.22;;;4.70;;
49139;SDS011;34959;49.310;8.646;2022-07-24T05:28:21;4.93;;;4.50;;
49139;SDS011;34959;49.310;8.646;2022-07-24T05:30:46;7.13;;;4.55;;
49139;SDS011;34959;49.310;8.646;2022-07-24T05:33:12;6.22;;;5.13;;
49139;SDS011;34959;49.310;8.646;2022-07-24T05:35:37;4.97;;;4.47;;
49139;SDS011;34959;49.310;8.646;2022-07-24T05:38:02;5.15;;;4.65;;
49139;SDS011;34959;49.310;8.646;2022-07-24T05:40:28;5.68;;;5.18;;
49139;SDS011;34959;49.310;8.646;2022-07-24T05:42:53;5.85;;;4.93;;
49139;SDS011;34959;49.310;8.646;2022-07-24T05:45:19;5.07;;;4.43;;
49139;SDS011;34959;49.310;8.646;2022-07-24T05:47:44;5.45;;;4.88;;
49139;SDS011;34959;49.310;8.646;2022-07-24T05:50:10;5.75;;;4.53;;
49139;SDS011;34959;49.310;8.646;2022-07-24T05:52:37;4.75;;;4.25;;
49139;SDS011;34959;49.310;8.646;2022-07-24T05:55:03;8.52;;;4.70;;
49139;SDS011;34959;49.310;8.646;2022-07-24T05:57:29;5.18;;;4.60;;
49139;SDS011;34959;49.310;8.646;2022-07-24T05:59:55;6.18;;;4.72;;
49139;SDS011;34959;49.310;8.646;2022-07-24T06:02:20;5.10;;;4.60;;
49139;SDS011;34959;49.310;8.646;2022-07-24T06:04:46;6.15;;;4.40;;
49139;SDS011;34959;49.310;8.646;2022-07-24T06:07:12;6.15;;;5.30;;
49139;SDS011;34959;49.310;8.646;2022-07-24T06:09:38;4.93;;;4.43;;
49139;SDS011;34959;49.310;8.646;2022-07-24T06:12:04;4.82;;;4.22;;
49139;SDS011;34959;49.310;8.646;2022-07-24T06:14:30;4.70;;;4.30;;
49139;SDS011;34959;49.310;8.646;2022-07-24T06:16:56;4.90;;;4.40;;
49139;SDS011;34959;49.310;8.646;2022-07-24T06:19:21;6.05;;;4.50;;
49139;SDS011;34959;49.310;8.646;2022-07-24T06:21:47;4.82;;;4.30;;
49139;SDS011;34959;49.310;8.646;2022-07-24T06:24:12;4.88;;;4.35;;
49139;SDS011;34959;49.310;8.646;2022-07-24T06:26:37;5.57;;;4.60;;
49139;SDS011;34959;49.310;8.646;2022-07-24T06:29:03;4.75;;;4.22;;
49139;SDS011;34959;49.310;8.646;2022-07-24T06:31:29;4.45;;;4.05;;
49139;SDS011;34959;49.310;8.646;2022-07-24T06:33:54;5.10;;;4.15;;
49139;SDS011;34959;49.310;8.646;2022-07-24T06:36:22;5.88;;;4.43;;
49139;SDS011;34959;49.310;8.646;2022-07-24T06:38:47;4.78;;;4.28;;
49139;SDS011;34959;49.310;8.646;2022-07-24T06:41:13;4.78;;;4.25;;
49139;SDS011;34959;49.310;8.646;2022-07-24T06:43:39;4.88;;;4.18;;
49139;SDS011;34959;49.310;8.646;2022-07-24T06:46:04;4.57;;;4.18;;
49139;SDS011;34959;49.310;8.646;2022-07-24T06:48:30;4.50;;;4.10;;
49139;SDS011;34959;49.310;8.646;2022-07-24T06:50:56;4.65;;;4.13;;
49139;SDS011;34959;49.310;8.646;2022-07-24T06:53:21;5.47;;;4.55;;
49139;SDS011;34959;49.310;8.646;2022-07-24T06:55:46;4.70;;;4.25;;
49139;SDS011;34959;49.310;8.646;2022-07-24T06:58:12;6.53;;;4.28;;
49139;SDS011;34959;49.310;8.646;2022-07-24T07:00:38;4.72;;;4.20;;
49139;SDS011;34959;49.310;8.646;2022-07-24T07:03:04;5.22;;;4.35;;
49139;SDS011;34959;49.310;8.646;2022-07-24T07:05:30;5.65;;;3.83;;
49139;SDS011;34959;49.310;8.646;2022-07-24T07:07:56;5.00;;;4.30;;
49139;SDS011;34959;49.310;8.646;2022-07-24T07:10:21;5.45;;;4.25;;
49139;SDS011;34959;49.310;8.646;2022-07-24T07:12:47;4.85;;;4.35;;
49139;SDS011;34959;49.310;8.646;2022-07-24T07:15:12;6.07;;;4.20;;
49139;SDS011;34959;49.310;8.646;2022-07-24T07:17:39;5.07;;;4.50;;
49139;SDS011;34959;49.310;8.646;2022-07-24T07:20:05;4.65;;;4.15;;
49139;SDS011;34959;49.310;8.646;2022-07-24T07:22:31;4.78;;;4.28;;
49139;SDS011;34959;49.310;8.646;2022-07-24T07:24:57;4.63;;;4.10;;
49139;SDS011;34959;49.310;8.646;2022-07-24T07:27:25;5.45;;;4.30;;
49139;SDS011;34959;49.310;8.646;2022-07-24T07:29:50;4.90;;;4.10;;
49139;SDS011;34959;49.310;8.646;2022-07-24T07:32:16;5.50;;;4.15;;
49139;SDS011;34959;49.310;8.646;2022-07-24T07:34:44;5.13;;;4.18;;
49139;SDS011;34959;49.310;8.646;2022-07-24T07:37:09;4.88;;;4.10;;
49139;SDS011;34959;49.310;8.646;2022-07-24T07:39:35;5.00;;;4.15;;
49139;SDS011;34959;49.310;8.646;2022-07-24T07:42:00;4.40;;;4.00;;
49139;SDS011;34959;49.310;8.646;2022-07-24T07:44:26;5.20;;;4.30;;
49139;SDS011;34959;49.310;8.646;2022-07-24T07:46:51;5.50;;;4.22;;
49139;SDS011;34959;49.310;8.646;2022-07-24T07:49:19;4.88;;;4.20;;
49139;SDS011;34959;49.310;8.646;2022-07-24T07:51:45;5.82;;;4.45;;
49139;SDS011;34959;49.310;8.646;2022-07-24T07:54:13;5.10;;;4.25;;
49139;SDS011;34959;49.310;8.646;2022-07-24T07:56:39;4.85;;;4.15;;
49139;SDS011;34959;49.310;8.646;2022-07-24T07:59:05;4.75;;;4.25;;
49139;SDS011;34959;49.310;8.646;2022-07-24T08:01:30;4.40;;;4.00;;
49139;SDS011;34959;49.310;8.646;2022-07-24T08:03:56;4.88;;;4.00;;
49139;SDS011;34959;49.310;8.646;2022-07-24T08:06:21;4.70;;;4.20;;
49139;SDS011;34959;49.310;8.646;2022-07-24T08:08:56;5.10;;;4.47;;
49139;SDS011;34959;49.310;8.646;2022-07-24T08:11:21;4.28;;;3.83;;
49139;SDS011;34959;49.310;8.646;2022-07-24T08:13:47;5.43;;;4.40;;
49139;SDS011;34959;49.310;8.646;2022-07-24T08:16:12;4.45;;;4.03;;
49139;SDS011;34959;49.310;8.646;2022-07-24T08:18:37;4.95;;;4.25;;
49139;SDS011;34959;49.310;8.646;2022-07-24T08:21:03;5.95;;;5.00;;
49139;SDS011;34959;49.310;8.646;2022-07-24T08:23:28;5.05;;;4.13;;
49139;SDS011;34959;49.310;8.646;2022-07-24T08:25:54;6.28;;;4.35;;
49139;SDS011;34959;49.310;8.646;2022-07-24T08:28:20;5.68;;;4.68;;
49139;SDS011;34959;49.310;8.646;2022-07-24T08:30:53;7.82;;;4.30;;
49139;SDS011;34959;49.310;8.646;2022-07-24T08:33:19;5.15;;;3.97;;
49139;SDS011;34959;49.310;8.646;2022-07-24T08:35:44;5.32;;;4.22;;
49139;SDS011;34959;49.310;8.646;2022-07-24T08:38:10;7.25;;;4.88;;
49139;SDS011;34959;49.310;8.646;2022-07-24T08:40:36;4.75;;;4.20;;
49139;SDS011;34959;49.310;8.646;2022-07-24T08:43:07;5.38;;;4.72;;
49139;SDS011;34959;49.310;8.646;2022-07-24T08:45:34;5.88;;;4.30;;
49139;SDS011;34959;49.310;8.646;2022-07-24T08:48:04;4.72;;;3.95;;
49139;SDS011;34959;49.310;8.646;2022-07-24T08:50:32;4.63;;;4.10;;
49139;SDS011;34959;49.310;8.646;2022-07-24T08:52:59;4.63;;;4.22;;
49139;SDS011;34959;49.310;8.646;2022-07-24T08:55:26;5.95;;;4.22;;
49139;SDS011;34959;49.310;8.646;2022-07-24T08:57:58;7.03;;;4.13;;
49139;SDS011;34959;49.310;8.646;2022-07-24T09:00:25;5.82;;;4.00;;
49139;SDS011;34959;49.310;8.646;2022-07-24T09:02:51;5.90;;;4.30;;
49139;SDS011;34959;49.310;8.646;2022-07-24T09:05:17;4.80;;;4.30;;
49139;SDS011;34959;49.310;8.646;2022-07-24T09:07:42;5.55;;;4.30;;
49139;SDS011;34959;49.310;8.646;2022-07-24T09:10:09;4.70;;;4.22;;
49139;SDS011;34959;49.310;8.646;2022-07-24T09:12:38;4.50;;;4.10;;
49139;SDS011;34959;49.310;8.646;2022-07-24T09:15:19;5.00;;;4.47;;
49139;SDS011;34959;49.310;8.646;2022-07-24T09:17:54;5.00;;;4.60;;
49139;SDS011;34959;49.310;8.646;2022-07-24T09:20:24;5.13;;;4.63;;
49139;SDS011;34959;49.310;8.646;2022-07-24T09:22:51;6.47;;;4.57;;
49139;SDS011;34959;49.310;8.646;2022-07-24T09:25:18;6.32;;;4.53;;
49139;SDS011;34959;49.310;8.646;2022-07-24T09:35:24;6.97;;;4.28;;
49139;SDS011;34959;49.310;8.646;2022-07-24T09:37:57;4.93;;;4.43;;
49139;SDS011;34959;49.310;8.646;2022-07-24T09:40:28;5.00;;;4.50;;
49139;SDS011;34959;49.310;8.646;2022-07-24T09:45:54;6.75;;;4.93;;
49139;SDS011;34959;49.310;8.646;2022-07-24T09:48:28;5.07;;;4.57;;
49139;SDS011;34959;49.310;8.646;2022-07-24T09:51:02;5.30;;;4.60;;
49139;SDS011;34959;49.310;8.646;2022-07-24T09:53:30;6.00;;;4.68;;
49139;SDS011;34959;49.310;8.646;2022-07-24T09:56:03;6.93;;;4.93;;
49139;SDS011;34959;49.310;8.646;2022-07-24T09:58:29;5.32;;;4.82;;
49139;SDS011;34959;49.310;8.646;2022-07-24T10:00:56;5.65;;;4.65;;
49139;SDS011;34959;49.310;8.646;2022-07-24T10:03:27;4.97;;;4.47;;
49139;SDS011;34959;49.310;8.646;2022-07-24T10:05:57;6.43;;;5.10;;
49139;SDS011;34959;49.310;8.646;2022-07-24T10:08:26;6.88;;;4.90;;
49139;SDS011;34959;49.310;8.646;2022-07-24T10:10:52;5.55;;;4.50;;
49139;SDS011;34959;49.310;8.646;2022-07-24T10:13:18;7.25;;;5.20;;
49139;SDS011;34959;49.310;8.646;2022-07-24T10:16:27;5.22;;;4.60;;
49139;SDS011;34959;49.310;8.646;2022-07-24T10:18:44;5.57;;;4.90;;
49139;SDS011;34959;49.310;8.646;2022-07-24T10:21:18;5.60;;;4.85;;
49139;SDS011;34959;49.310;8.646;2022-07-24T10:23:51;5.53;;;5.00;;
49139;SDS011;34959;49.310;8.646;2022-07-24T10:26:37;6.13;;;4.80;;
49139;SDS011;34959;49.310;8.646;2022-07-24T10:29:23;5.45;;;4.95;;
49139;SDS011;34959;49.310;8.646;2022-07-24T10:31:50;5.70;;;5.10;;
49139;SDS011;34959;49.310;8.646;2022-07-24T10:36:54;6.65;;;4.80;;
49139;SDS011;34959;49.310;8.646;2022-07-24T10:39:38;5.57;;;5.05;;
49139;SDS011;34959;49.310;8.646;2022-07-24T10:42:10;5.55;;;4.90;;
49139;SDS011;34959;49.310;8.646;2022-07-24T10:44:36;6.03;;;5.13;;
49139;SDS011;34959;49.310;8.646;2022-07-24T10:47:24;5.05;;;4.55;;
49139;SDS011;34959;49.310;8.646;2022-07-24T10:49:50;7.68;;;4.68;;
49139;SDS011;34959;49.310;8.646;2022-07-24T10:52:29;5.85;;;5.20;;
49139;SDS011;34959;49.310;8.646;2022-07-24T10:57:58;5.43;;;4.93;;
49139;SDS011;34959;49.310;8.646;2022-07-24T11:00:32;5.32;;;4.82;;
49139;SDS011;34959;49.310;8.646;2022-07-24T11:03:01;5.78;;;4.88;;
49139;SDS011;34959;49.310;8.646;2022-07-24T11:05:32;5.20;;;4.70;;
49139;SDS011;34959;49.310;8.646;2022-07-24T11:10:54;5.22;;;4.72;;
49139;SDS011;34959;49.310;8.646;2022-07-24T11:13:38;6.55;;;5.05;;
49139;SDS011;34959;49.310;8.646;2022-07-24T11:21:28;5.28;;;4.78;;
49139;SDS011;34959;49.310;8.646;2022-07-24T11:26:39;5.45;;;4.90;;
49139;SDS011;34959;49.310;8.646;2022-07-24T11:31:40;5.15;;;4.65;;
49139;SDS011;34959;49.310;8.646;2022-07-24T11:34:06;5.35;;;4.70;;
49139;SDS011;34959;49.310;8.646;2022-07-24T11:36:33;4.80;;;4.30;;
49139;SDS011;34959;49.310;8.646;2022-07-24T11:38:59;5.18;;;4.68;;
49139;SDS011;34959;49.310;8.646;2022-07-24T11:41:31;5.70;;;4.72;;
49139;SDS011;34959;49.310;8.646;2022-07-24T11:44:24;5.07;;;4.63;;
49139;SDS011;34959;49.310;8.646;2022-07-24T11:47:09;6.07;;;4.90;;
49139;SDS011;34959;49.310;8.646;2022-07-24T11:49:39;5.13;;;4.63;;
49139;SDS011;34959;49.310;8.646;2022-07-24T11:52:17;5.27;;;4.77;;
49139;SDS011;34959;49.310;8.646;2022-07-24T11:54:47;5.13;;;4.60;;
49139;SDS011;34959;49.310;8.646;2022-07-24T11:57:25;5.85;;;5.28;;
49139;SDS011;34959;49.310;8.646;2022-07-24T11:59:51;5.70;;;4.57;;
49139;SDS011;34959;49.310;8.646;2022-07-24T12:02:18;5.40;;;4.78;;
49139;SDS011;34959;49.310;8.646;2022-07-24T12:04:44;5.15;;;4.65;;
49139;SDS011;34959;49.310;8.646;2022-07-24T12:07:12;6.18;;;4.97;;
49139;SDS011;34959;49.310;8.646;2022-07-24T12:09:55;5.72;;;5.13;;
49139;SDS011;34959;49.310;8.646;2022-07-24T12:15:04;5.57;;;4.95;;
49139;SDS011;34959;49.310;8.646;2022-07-24T12:17:33;5.60;;;4.78;;
49139;SDS011;34959;49.310;8.646;2022-07-24T12:20:00;4.68;;;4.25;;
49139;SDS011;34959;49.310;8.646;2022-07-24T12:22:27;5.85;;;4.88;;
49139;SDS011;34959;49.310;8.646;2022-07-24T12:24:53;5.20;;;4.70;;
49139;SDS011;34959;49.310;8.646;2022-07-24T12:27:36;6.32;;;4.50;;
49139;SDS011;34959;49.310;8.646;2022-07-24T12:30:18;5.07;;;4.53;;
49139;SDS011;34959;49.310;8.646;2022-07-24T12:33:46;5.57;;;4.50;;
49139;SDS011;34959;49.310;8.646;2022-07-24T12:35:53;5.80;;;4.70;;
49139;SDS011;34959;49.310;8.646;2022-07-24T12:38:38;5.05;;;4.55;;
49139;SDS011;34959;49.310;8.646;2022-07-24T12:41:09;5.00;;;4.50;;
49139;SDS011;34959;49.310;8.646;2022-07-24T12:43:56;6.45;;;4.50;;
49139;SDS011;34959;49.310;8.646;2022-07-24T12:46:24;5.75;;;4.43;;
49139;SDS011;34959;49.310;8.646;2022-07-24T12:49:01;5.15;;;4.65;;
49139;SDS011;34959;49.310;8.646;2022-07-24T12:51:26;5.38;;;4.88;;
49139;SDS011;34959;49.310;8.646;2022-07-24T12:53:57;4.82;;;4.30;;
49139;SDS011;34959;49.310;8.646;2022-07-24T12:56:32;4.95;;;4.40;;
49139;SDS011;34959;49.310;8.646;2022-07-24T12:59:01;6.57;;;4.80;;
49139;SDS011;34959;49.310;8.646;2022-07-24T13:01:43;5.03;;;4.30;;
49139;SDS011;34959;49.310;8.646;2022-07-24T13:04:11;4.93;;;4.43;;
49139;SDS011;34959;49.310;8.646;2022-07-24T13:06:43;4.70;;;4.07;;
49139;SDS011;34959;49.310;8.646;2022-07-24T13:09:11;5.43;;;4.68;;
49139;SDS011;34959;49.310;8.646;2022-07-24T13:11:38;6.63;;;4.20;;
49139;SDS011;34959;49.310;8.646;2022-07-24T13:14:06;5.50;;;4.40;;
49139;SDS011;34959;49.310;8.646;2022-07-24T13:16:33;5.85;;;4.45;;
49139;SDS011;34959;49.310;8.646;2022-07-24T13:19:00;6.20;;;4.80;;
49139;SDS011;34959;49.310;8.646;2022-07-24T13:21:27;5.03;;;4.53;;
49139;SDS011;34959;49.310;8.646;2022-07-24T13:23:53;4.43;;;3.97;;
49139;SDS011;34959;49.310;8.646;2022-07-24T13:26:19;5.03;;;4.53;;
49139;SDS011;34959;49.310;8.646;2022-07-24T13:28:44;4.68;;;4.22;;
49139;SDS011;34959;49.310;8.646;2022-07-24T13:31:10;5.45;;;4.30;;
49139;SDS011;34959;49.310;8.646;2022-07-24T13:33:36;8.05;;;4.78;;
49139;SDS011;34959;49.310;8.646;2022-07-24T13:36:02;6.15;;;4.03;;
49139;SDS011;34959;49.310;8.646;2022-07-24T13:38:27;4.72;;;4.22;;
49139;SDS011;34959;49.310;8.646;2022-07-24T13:40:53;5.10;;;4.55;;
49139;SDS011;34959;49.310;8.646;2022-07-24T13:43:18;5.22;;;4.20;;
49139;SDS011;34959;49.310;8.646;2022-07-24T13:45:44;4.70;;;4.20;;
49139;SDS011;34959;49.310;8.646;2022-07-24T13:48:09;5.15;;;4.63;;
49139;SDS011;34959;49.310;8.646;2022-07-24T13:50:35;4.72;;;4.22;;
49139;SDS011;34959;49.310;8.646;2022-07-24T13:53:00;5.00;;;4.13;;
49139;SDS011;34959;49.310;8.646;2022-07-24T13:55:26;4.95;;;4.10;;
49139;SDS011;34959;49.310;8.646;2022-07-24T13:57:51;5.40;;;4.20;;
49139;SDS011;34959;49.310;8.646;2022-07-24T14:00:17;5.10;;;4.20;;
49139;SDS011;34959;49.310;8.646;2022-07-24T14:02:42;4.53;;;4.05;;
49139;SDS011;34959;49.310;8.646;2022-07-24T14:05:08;5.35;;;4.00;;
49139;SDS011;34959;49.310;8.646;2022-07-24T14:07:33;4.90;;;3.83;;
49139;SDS011;34959;49.310;8.646;2022-07-24T14:09:59;4.75;;;4.07;;
49139;SDS011;34959;49.310;8.646;2022-07-24T14:12:24;4.35;;;3.95;;
49139;SDS011;34959;49.310;8.646;2022-07-24T14:14:50;4.90;;;3.90;;
49139;SDS011;34959;49.310;8.646;2022-07-24T14:17:15;4.88;;;3.95;;
49139;SDS011;34959;49.310;8.646;2022-07-24T14:19:41;5.35;;;4.05;;
49139;SDS011;34959;49.310;8.646;2022-07-24T14:22:06;4.63;;;4.15;;
49139;SDS011;34959;49.310;8.646;2022-07-24T14:24:32;4.60;;;3.78;;
49139;SDS011;34959;49.310;8.646;2022-07-24T14:26:57;4.28;;;3.65;;
49139;SDS011;34959;49.310;8.646;2022-07-24T14:29:23;4.60;;;3.80;;
49139;SDS011;34959;49.310;8.646;2022-07-24T14:31:49;6.22;;;3.95;;
49139;SDS011;34959;49.310;8.646;2022-07-24T14:34:15;4.50;;;3.75;;
49139;SDS011;34959;49.310;8.646;2022-07-24T14:36:40;4.65;;;3.72;;
49139;SDS011;34959;49.310;8.646;2022-07-24T14:39:06;4.40;;;3.75;;
49139;SDS011;34959;49.310;8.646;2022-07-24T14:41:32;3.92;;;3.53;;
49139;SDS011;34959;49.310;8.646;2022-07-24T14:43:57;4.78;;;3.55;;
49139;SDS011;34959;49.310;8.646;2022-07-24T14:46:23;5.57;;;3.80;;
49139;SDS011;34959;49.310;8.646;2022-07-24T14:48:48;4.70;;;3.75;;
49139;SDS011;34959;49.310;8.646;2022-07-24T14:51:14;4.25;;;3.65;;
49139;SDS011;34959;49.310;8.646;2022-07-24T14:53:39;4.35;;;3.90;;
49139;SDS011;34959;49.310;8.646;2022-07-24T14:56:05;4.30;;;3.85;;
49139;SDS011;34959;49.310;8.646;2022-07-24T14:58:30;4.25;;;3.47;;
49139;SDS011;34959;49.310;8.646;2022-07-24T15:00:56;4.20;;;3.47;;
49139;SDS011;34959;49.310;8.646;2022-07-24T15:03:21;3.92;;;3.53;;
49139;SDS011;34959;49.310;8.646;2022-07-24T15:05:47;4.57;;;3.78;;
49139;SDS011;34959;49.310;8.646;2022-07-24T15:08:12;3.58;;;3.28;;
49139;SDS011;34959;49.310;8.646;2022-07-24T15:10:38;4.13;;;3.72;;
49139;SDS011;34959;49.310;8.646;2022-07-24T15:13:03;4.90;;;3.63;;
49139;SDS011;34959;49.310;8.646;2022-07-24T15:15:29;3.42;;;3.13;;
49139;SDS011;34959;49.310;8.646;2022-07-24T15:17:55;4.00;;;3.60;;
49139;SDS011;34959;49.310;8.646;2022-07-24T15:20:21;4.45;;;3.40;;